Time;durP1;ratioP1;P1;durP2;ratioP2;P2;SDS_P1;SDS_P2;PMS_P1;PMS_P2;Temp;Humidity;BMP_temperature;BMP_pressure;BME280_temperature;BME280_humidity;BME280_pressure;Samples;Min_cycle;Max_cycle;Signal;HPM_P1;HPM_P2
2021/04/11 00:00:13;;;;;;;38.60;22.73;;;12.60;99.90;;;;;;11954542;28;20042;-78
2021/04/11 00:06:00;;;;;;;44.25;25.38;;;12.20;99.90;;;;;;11939344;28;20050;-74
2021/04/11 00:11:46;;;;;;;35.97;22.00;;;12.20;99.90;;;;;;11939639;28;20393;-74
2021/04/11 00:17:33;;;;;;;34.63;20.70;;;12.10;99.90;;;;;;11941398;28;20424;-74
2021/04/11 00:23:25;;;;;;;29.92;19.33;;;12.20;99.90;;;;;;11941245;28;20061;-75
2021/04/11 00:29:12;;;;;;;28.52;18.50;;;11.90;99.90;;;;;;11942353;28;20049;-75
2021/04/11 00:34:59;;;;;;;32.80;19.63;;;11.70;99.90;;;;;;11949677;28;20057;-75
2021/04/11 00:40:45;;;;;;;32.58;20.05;;;11.60;99.90;;;;;;11949024;28;20416;-76
2021/04/11 00:46:40;;;;;;;30.50;20.02;;;11.70;99.90;;;;;;11950725;28;20053;-75
2021/04/11 00:52:28;;;;;;;33.40;20.90;;;11.70;99.90;;;;;;11951096;28;20397;-76
2021/04/11 00:58:14;;;;;;;32.22;19.88;;;11.70;99.90;;;;;;11949633;28;20104;-76
2021/04/11 01:04:01;;;;;;;32.97;19.35;;;11.80;99.90;;;;;;11948776;28;20061;-76
2021/04/11 01:09:49;;;;;;;35.72;20.35;;;11.90;99.90;;;;;;11950849;28;20037;-76
2021/04/11 01:15:36;;;;;;;34.30;20.35;;;12.00;99.90;;;;;;11951929;28;20057;-76
2021/04/11 01:21:32;;;;;;;32.60;19.83;;;12.00;99.90;;;;;;11949126;28;20057;-76
2021/04/11 01:27:21;;;;;;;31.48;19.73;;;12.00;99.90;;;;;;11951915;28;20045;-76
2021/04/11 01:33:10;;;;;;;30.13;19.02;;;11.90;99.90;;;;;;11950339;28;20049;-76
2021/04/11 01:39:02;;;;;;;30.75;18.85;;;11.70;99.90;;;;;;11945009;28;20081;-76
2021/04/11 01:44:51;;;;;;;31.25;19.77;;;11.90;99.90;;;;;;11943421;28;20103;-76
2021/04/11 01:50:39;;;;;;;31.80;20.20;;;11.90;99.90;;;;;;11949290;28;20045;-76
2021/04/11 09:45:28;;;;;;;13.90;8.25;;;7.90;99.90;;;;;;12069309;27;1492417;-76
2021/04/11 09:51:38;;;;;;;13.15;8.23;;;8.30;99.90;;;;;;12092033;28;20055;-75
2021/04/11 09:57:51;;;;;;;12.82;7.28;;;9.30;99.90;;;;;;12100725;28;20044;-76
2021/04/11 10:03:52;;;;;;;16.50;7.83;;;9.70;99.90;;;;;;12106724;28;20055;-75
2021/04/11 10:09:52;;;;;;;13.35;8.05;;;10.00;99.90;;;;;;12086223;28;20064;-75
2021/04/11 10:15:43;;;;;;;14.27;8.18;;;10.10;99.90;;;;;;12106157;28;20087;-73
2021/04/11 10:21:41;;;;;;;12.50;6.80;;;10.10;99.90;;;;;;12099287;28;20506;-76
2021/04/11 10:27:35;;;;;;;14.52;6.78;;;10.10;99.90;;;;;;12100646;28;20056;-75
2021/04/11 10:33:36;;;;;;;12.90;6.75;;;10.00;99.90;;;;;;12077256;28;20102;-75
2021/04/11 10:39:32;;;;;;;12.88;7.05;;;9.80;99.90;;;;;;12077115;28;20044;-75
2021/04/11 10:45:26;;;;;;;13.18;6.68;;;9.70;99.90;;;;;;12079218;28;20106;-76
2021/04/11 10:51:28;;;;;;;13.23;6.32;;;9.30;99.90;;;;;;12074704;28;20051;-76
2021/04/11 10:57:38;;;;;;;12.10;6.25;;;9.50;99.90;;;;;;12049531;28;20059;-74
2021/04/11 11:03:44;;;;;;;15.13;7.35;;;9.90;99.90;;;;;;12047187;28;20605;-75
2021/04/11 11:09:35;;;;;;;16.25;6.78;;;10.10;99.90;;;;;;12045610;28;20055;-76
2021/04/11 11:15:58;;;;;;;10.23;5.80;;;10.10;99.90;;;;;;12048224;28;20503;-74
2021/04/11 11:22:08;;;;;;;12.27;6.05;;;9.60;99.90;;;;;;12039551;28;20622;-76
2021/04/11 11:28:34;;;;;;;16.70;6.75;;;9.50;99.90;;;;;;12040141;28;20051;-75
2021/04/11 11:34:47;;;;;;;15.25;6.30;;;9.80;99.90;;;;;;12039431;28;20094;-74
2021/04/11 11:40:39;;;;;;;15.70;6.35;;;10.00;99.90;;;;;;12036730;28;20166;-75
2021/04/11 11:46:37;;;;;;;13.70;6.60;;;9.60;99.90;;;;;;12040349;28;20060;-76
2021/04/11 11:52:28;;;;;;;12.50;5.32;;;9.40;99.90;;;;;;12037625;28;20044;-77
2021/04/11 11:58:20;;;;;;;10.60;5.55;;;9.70;99.90;;;;;;12038735;28;20044;-74
2021/04/11 12:04:54;;;;;;;11.70;4.95;;;9.90;99.90;;;;;;12039111;28;20048;-74
2021/04/11 12:10:48;;;;;;;11.98;5.40;;;10.00;99.90;;;;;;12017296;28;20064;-73
2021/04/11 12:16:38;;;;;;;;;;;10.20;99.90;;;;;;12036955;28;20527;-75
2021/04/11 12:22:33;;;;;;;8.05;3.90;;;10.60;99.90;;;;;;12036225;28;20003;-77
2021/04/11 12:28:26;;;;;;;8.68;4.93;;;10.70;99.90;;;;;;12038609;28;20059;-76
2021/04/11 12:34:28;;;;;;;7.13;3.70;;;10.90;99.90;;;;;;12040147;28;20060;-76
2021/04/11 12:40:26;;;;;;;7.72;3.28;;;10.90;99.90;;;;;;12038978;28;20057;-76
2021/04/11 12:46:21;;;;;;;11.20;3.47;;;10.30;99.90;;;;;;12020643;28;20109;-76
2021/04/11 12:52:15;;;;;;;8.82;3.17;;;10.70;99.90;;;;;;12040437;28;20049;-76
2021/04/11 12:58:07;;;;;;;8.95;3.22;;;11.10;99.90;;;;;;12037282;28;20052;-75
2021/04/11 13:04:07;;;;;;;16.42;3.45;;;10.70;99.90;;;;;;12039583;28;20064;-75
2021/04/11 13:10:14;;;;;;;9.57;3.38;;;10.80;99.90;;;;;;12039172;28;20510;-75
2021/04/11 13:16:07;;;;;;;8.95;3.20;;;10.30;99.90;;;;;;12037868;28;20133;-76
2021/04/11 13:21:59;;;;;;;12.63;3.17;;;10.10;99.90;;;;;;12039341;28;20045;-76
2021/04/11 13:27:55;;;;;;;5.45;2.95;;;10.20;99.90;;;;;;12036875;28;20044;-75
2021/04/11 13:33:48;;;;;;;8.80;2.72;;;10.70;99.90;;;;;;12039323;28;20048;-75
2021/04/11 13:39:38;;;;;;;11.57;3.38;;;10.80;97.20;;;;;;12040613;28;20056;-75
2021/04/11 13:45:33;;;;;;;8.32;2.70;;;10.80;97.20;;;;;;12037270;28;20059;-75
2021/04/11 13:51:32;;;;;;;12.32;5.13;;;10.60;95.90;;;;;;12035003;28;20044;-74
2021/04/11 13:57:47;;;;;;;3.78;2.50;;;10.60;96.60;;;;;;12035433;28;20052;-76
2021/04/11 14:03:47;;;;;;;4.57;2.88;;;10.70;97.30;;;;;;12019624;28;20652;-76
2021/04/11 14:09:43;;;;;;;7.53;2.38;;;10.80;96.60;;;;;;12038648;28;20084;-76
2021/04/11 14:15:36;;;;;;;7.57;2.50;;;10.70;94.80;;;;;;12035757;28;20048;-75
2021/04/11 14:21:26;;;;;;;6.30;2.87;;;10.80;93.10;;;;;;12035520;28;20456;-76
2021/04/11 14:27:19;;;;;;;4.38;2.20;;;10.80;91.80;;;;;;12034835;28;20060;-75
2021/04/11 14:33:12;;;;;;;5.50;2.53;;;11.00;92.50;;;;;;12044081;28;20040;-74
2021/04/11 14:39:09;;;;;;;6.25;2.67;;;11.20;91.70;;;;;;12042788;28;20052;-75
2021/04/11 14:44:59;;;;;;;5.22;2.30;;;10.80;91.80;;;;;;12043012;28;20095;-75
2021/04/11 14:50:46;;;;;;;6.60;2.47;;;10.90;91.60;;;;;;12045731;28;20397;-76
2021/04/11 14:56:53;;;;;;;4.30;2.60;;;10.90;92.00;;;;;;12040991;28;20462;-76
2021/04/11 15:02:50;;;;;;;7.93;2.58;;;10.60;92.40;;;;;;12034335;28;20044;-75
2021/04/11 15:08:43;;;;;;;8.48;2.58;;;10.60;92.60;;;;;;12038581;28;20169;-78
2021/04/11 15:14:35;;;;;;;10.15;2.72;;;10.70;92.30;;;;;;12042307;28;20053;-77
2021/04/11 15:20:25;;;;;;;7.28;2.70;;;10.70;92.90;;;;;;12048715;28;20045;-77
2021/04/11 15:26:22;;;;;;;8.65;2.63;;;10.80;92.60;;;;;;12047909;28;20400;-78
2021/04/11 15:32:14;;;;;;;7.93;2.30;;;11.50;92.40;;;;;;12046036;28;20636;-77
2021/04/11 15:38:05;;;;;;;7.05;2.15;;;11.60;89.50;;;;;;12039400;28;20095;-78
2021/04/11 15:44:00;;;;;;;8.90;2.38;;;12.00;89.00;;;;;;12043738;28;20059;-78
2021/04/11 15:49:50;;;;;;;7.60;2.72;;;11.50;84.90;;;;;;12039903;28;20500;-78
2021/04/11 15:55:45;;;;;;;10.57;2.15;;;11.50;86.70;;;;;;12047450;28;20052;-77
2021/04/11 16:01:41;;;;;;;5.43;2.00;;;11.70;84.30;;;;;;12043296;28;20040;-77
2021/04/11 16:07:35;;;;;;;6.97;2.30;;;11.50;83.20;;;;;;12047508;28;20052;-77
2021/04/11 16:13:48;;;;;;;10.88;2.08;;;11.40;81.40;;;;;;12042667;28;20056;-78
2021/04/11 16:19:44;;;;;;;3.43;2.00;;;11.40;82.70;;;;;;12017737;28;20076;-79
2021/04/11 16:25:36;;;;;;;3.55;1.75;;;11.60;81.80;;;;;;12041314;28;20049;-77
2021/04/11 16:31:33;;;;;;;2.55;1.42;;;11.60;82.40;;;;;;12044875;28;20567;-78
2021/04/11 16:37:55;;;;;;;5.38;2.25;;;11.50;81.70;;;;;;12040233;28;20388;-78
2021/04/11 16:43:49;;;;;;;6.15;2.08;;;11.10;81.00;;;;;;12034769;28;20060;-78
2021/04/11 16:49:43;;;;;;;8.10;2.10;;;11.10;81.20;;;;;;12036442;28;20053;-78
2021/04/11 16:55:36;;;;;;;8.40;2.17;;;11.30;82.90;;;;;;12042163;28;20048;-78
2021/04/11 17:01:32;;;;;;;4.50;2.10;;;11.30;83.10;;;;;;12045363;28;20045;-79
2021/04/11 17:07:25;;;;;;;8.55;2.35;;;11.40;81.00;;;;;;12042342;28;20048;-78
2021/04/11 17:13:24;;;;;;;5.80;2.40;;;10.80;83.20;;;;;;12046367;28;20044;-78
2021/04/11 17:19:32;;;;;;;5.95;2.28;;;10.80;84.90;;;;;;12039360;28;20094;-77
2021/04/11 17:25:31;;;;;;;5.90;2.10;;;10.70;84.40;;;;;;12041588;28;20128;-78
2021/04/11 17:31:23;;;;;;;8.73;3.03;;;10.70;86.10;;;;;;12046469;28;20051;-78
2021/04/11 17:37:16;;;;;;;5.32;2.53;;;10.60;86.50;;;;;;12048001;28;20472;-78
2021/04/11 17:43:19;;;;;;;9.73;3.05;;;10.80;84.80;;;;;;12040287;28;20052;-78
2021/04/11 17:49:18;;;;;;;6.93;2.50;;;10.70;85.50;;;;;;12041713;28;20067;-78
2021/04/11 17:55:09;;;;;;;7.53;2.70;;;10.80;84.10;;;;;;12044678;28;20071;-78
2021/04/11 18:01:09;;;;;;;9.00;2.67;;;10.70;83.10;;;;;;12047568;28;20118;-77
2021/04/11 18:07:09;;;;;;;10.88;3.33;;;10.70;82.30;;;;;;12053250;28;20056;-77
2021/04/11 18:13:06;;;;;;;7.57;3.00;;;10.80;82.90;;;;;;12053097;28;21150;-78
2021/04/11 18:19:05;;;;;;;9.52;3.03;;;10.80;82.30;;;;;;12055191;28;20040;-75
2021/04/11 18:24:58;;;;;;;5.97;2.95;;;10.30;83.50;;;;;;12049580;28;20057;-77
2021/04/11 18:30:47;;;;;;;9.37;3.10;;;10.50;84.40;;;;;;12048634;28;20044;-77
2021/04/11 18:36:40;;;;;;;11.75;3.70;;;10.70;84.20;;;;;;12044464;28;20052;-78
2021/04/11 18:42:35;;;;;;;8.80;4.10;;;10.70;83.40;;;;;;12045577;28;20143;-77
2021/04/11 18:48:32;;;;;;;10.05;3.75;;;10.70;83.80;;;;;;12043990;28;20063;-77
2021/04/11 18:54:26;;;;;;;12.32;4.03;;;10.70;84.40;;;;;;12046367;28;20049;-77
2021/04/11 19:00:21;;;;;;;9.80;4.05;;;10.70;84.20;;;;;;12040445;28;20056;-77
2021/04/11 19:06:26;;;;;;;10.60;4.38;;;10.70;84.40;;;;;;12040943;28;20055;-77
2021/04/11 19:12:33;;;;;;;7.40;3.20;;;10.70;86.80;;;;;;12044541;28;20075;-77
2021/04/11 19:18:30;;;;;;;6.57;4.32;;;10.70;89.40;;;;;;12044120;28;20136;-77
2021/04/11 19:24:35;;;;;;;6.45;3.63;;;10.70;89.80;;;;;;12065093;28;20047;-84
2021/04/11 19:30:48;;;;;;;9.35;3.28;;;10.70;90.60;;;;;;12059287;28;20090;-80
2021/04/11 19:36:59;;;;;;;11.37;4.47;;;10.60;91.30;;;;;;12051167;28;20045;-80
2021/04/11 19:43:17;;;;;;;9.05;4.25;;;10.50;91.40;;;;;;12052717;28;20415;-79
2021/04/11 19:49:51;;;;;;;10.10;4.07;;;10.30;92.00;;;;;;12053360;28;20161;-80
2021/04/11 19:55:46;;;;;;;7.93;4.28;;;10.20;92.90;;;;;;11859721;28;20065;-80
2021/04/11 20:01:45;;;;;;;9.50;4.55;;;10.10;93.80;;;;;;11863186;28;20458;-78
2021/04/11 20:07:56;;;;;;;13.38;5.05;;;10.10;94.30;;;;;;11855941;28;20068;-80
2021/04/11 20:14:30;;;;;;;11.95;5.15;;;10.10;94.30;;;;;;11862270;28;20046;-81
2021/04/11 20:20:44;;;;;;;9.48;5.63;;;10.00;94.80;;;;;;11865145;28;20177;-80
2021/04/11 20:26:51;;;;;;;14.90;7.57;;;9.90;95.00;;;;;;11996958;28;20110;-79
2021/04/11 20:33:11;;;;;;;13.20;8.15;;;9.90;95.00;;;;;;12035230;28;20049;-79
2021/04/11 20:39:16;;;;;;;11.80;7.13;;;9.80;95.50;;;;;;12038069;28;20070;-77
2021/04/11 20:45:12;;;;;;;16.52;6.88;;;9.70;95.90;;;;;;12051499;28;20057;-78
2021/04/11 20:51:08;;;;;;;13.15;7.10;;;9.70;95.70;;;;;;12051428;28;20060;-79
2021/04/11 20:57:09;;;;;;;12.93;7.35;;;9.70;95.60;;;;;;12042818;28;20057;-79
2021/04/11 21:03:00;;;;;;;15.43;8.57;;;9.60;95.70;;;;;;12046240;28;20052;-79
2021/04/11 21:09:21;;;;;;;23.15;8.32;;;9.60;95.90;;;;;;12038217;28;20075;-79
2021/04/11 21:15:19;;;;;;;15.25;6.57;;;9.50;95.70;;;;;;12042974;28;20073;-79
2021/04/11 21:21:29;;;;;;;16.73;7.53;;;9.40;95.60;;;;;;12040834;28;20048;-78
2021/04/11 21:27:49;;;;;;;14.45;8.52;;;9.30;95.30;;;;;;12042407;28;20056;-78
2021/04/11 21:33:51;;;;;;;18.83;8.43;;;9.20;95.80;;;;;;12045324;28;20044;-78
2021/04/11 21:39:49;;;;;;;16.75;7.82;;;9.20;95.70;;;;;;12046891;28;20083;-77
2021/04/11 21:45:42;;;;;;;12.85;8.15;;;9.10;95.50;;;;;;12047710;28;20055;-77
2021/04/11 21:51:46;;;;;;;17.85;9.63;;;9.00;95.50;;;;;;12047074;28;20048;-78
2021/04/11 21:57:55;;;;;;;21.20;9.55;;;9.00;95.80;;;;;;12044364;28;20063;-79
2021/04/11 22:03:51;;;;;;;17.42;9.20;;;8.90;96.10;;;;;;12046818;28;20087;-77
2021/04/11 22:09:45;;;;;;;17.58;8.40;;;8.90;96.10;;;;;;12051726;28;20047;-78
2021/04/11 22:15:39;;;;;;;14.02;7.38;;;8.90;96.30;;;;;;12045297;28;20072;-78
2021/04/11 22:21:29;;;;;;;17.42;7.50;;;8.80;96.10;;;;;;12045792;28;20652;-78
2021/04/11 22:27:20;;;;;;;10.80;6.50;;;8.70;96.10;;;;;;12049087;28;20044;-78
2021/04/11 22:33:14;;;;;;;17.25;6.80;;;8.70;96.10;;;;;;12046251;28;20443;-78
2021/04/11 22:39:19;;;;;;;11.20;6.32;;;8.60;96.10;;;;;;12046112;28;20066;-79
2021/04/11 22:45:12;;;;;;;14.50;6.90;;;8.60;95.90;;;;;;12043609;28;20044;-79
2021/04/11 22:51:03;;;;;;;10.33;4.50;;;8.50;95.80;;;;;;12052522;28;20040;-78
2021/04/11 22:56:57;;;;;;;13.75;5.93;;;8.50;95.70;;;;;;12055414;28;20052;-79
2021/04/11 23:02:47;;;;;;;14.38;6.97;;;8.40;95.50;;;;;;12054048;28;20048;-79
2021/04/11 23:08:43;;;;;;;13.65;6.13;;;8.40;95.90;;;;;;12056190;28;20129;-79
2021/04/11 23:14:30;;;;;;;15.55;5.38;;;8.40;95.80;;;;;;12050313;28;20053;-79
2021/04/11 23:20:25;;;;;;;10.55;4.80;;;8.20;95.50;;;;;;12057565;28;20044;-78
